createdAt,value
2022-08-31T00:00:15.740Z,19.77
2022-08-31T00:03:26.699Z,19.77
2022-08-31T00:06:03.182Z,19.75
2022-08-31T00:08:36.937Z,19.75
2022-08-31T00:11:14.237Z,19.74
2022-08-31T00:13:48.079Z,19.74
2022-08-31T00:16:22.425Z,19.74
2022-08-31T00:18:56.046Z,19.74
2022-08-31T00:21:31.302Z,19.75
2022-08-31T00:24:05.144Z,19.73
2022-08-31T00:26:38.814Z,19.71
2022-08-31T00:29:12.604Z,19.69
2022-08-31T00:31:45.794Z,19.64
2022-08-31T00:34:20.076Z,19.64
2022-08-31T00:36:54.101Z,19.62
2022-08-31T00:39:27.304Z,19.60
2022-08-31T00:42:00.742Z,19.58
2022-08-31T00:44:34.214Z,19.56
2022-08-31T00:47:08.512Z,19.54
2022-08-31T00:49:47.027Z,19.52
2022-08-31T00:52:22.138Z,19.50
2022-08-31T00:54:58.349Z,19.44
2022-08-31T00:57:41.546Z,19.38
2022-08-31T01:00:18.989Z,19.37
2022-08-31T01:02:52.733Z,19.36
2022-08-31T01:05:26.988Z,19.34
2022-08-31T01:08:01.739Z,19.36
2022-08-31T01:10:38.841Z,19.35
2022-08-31T01:13:13.980Z,19.34
2022-08-31T01:15:53.987Z,19.32
2022-08-31T01:18:28.270Z,19.30
2022-08-31T01:21:11.002Z,19.27
2022-08-31T01:23:46.028Z,19.25
2022-08-31T01:26:22.584Z,19.23
2022-08-31T01:29:01.056Z,19.19
2022-08-31T01:31:38.349Z,19.15
2022-08-31T01:34:13.260Z,19.13
2022-08-31T01:36:48.466Z,19.08
2022-08-31T01:39:22.789Z,19.07
2022-08-31T01:41:57.059Z,19.03
2022-08-31T01:44:31.013Z,19.00
2022-08-31T01:47:04.473Z,19.00
2022-08-31T01:49:38.045Z,19.00
2022-08-31T01:52:11.399Z,18.96
2022-08-31T01:54:45.919Z,18.94
2022-08-31T01:57:19.233Z,18.93
2022-08-31T02:00:23.375Z,18.90
2022-08-31T02:02:56.910Z,18.88
2022-08-31T02:05:31.222Z,18.86
2022-08-31T02:08:07.616Z,18.82
2022-08-31T02:10:41.462Z,18.81
2022-08-31T02:13:16.646Z,18.81
2022-08-31T02:15:51.489Z,18.79
2022-08-31T02:18:25.094Z,18.76
2022-08-31T02:20:58.577Z,18.74
2022-08-31T02:23:33.561Z,18.72
2022-08-31T02:26:07.130Z,18.68
2022-08-31T02:28:40.464Z,18.68
2022-08-31T02:31:15.240Z,18.65
2022-08-31T02:33:53.168Z,18.61
2022-08-31T02:36:27.112Z,18.57
2022-08-31T02:39:01.344Z,18.54
2022-08-31T02:41:35.411Z,18.52
2022-08-31T02:44:10.019Z,18.50
2022-08-31T02:46:43.712Z,18.49
2022-08-31T02:49:41.819Z,18.47
2022-08-31T02:52:15.747Z,18.47
2022-08-31T02:54:49.058Z,18.49
2022-08-31T02:57:23.510Z,18.50
2022-08-31T02:59:56.969Z,18.51
2022-08-31T03:02:33.464Z,18.48
2022-08-31T03:05:08.602Z,18.47
2022-08-31T03:07:43.550Z,18.47
2022-08-31T03:10:18.135Z,18.50
2022-08-31T03:12:51.802Z,18.51
2022-08-31T03:15:26.909Z,18.49
2022-08-31T03:18:01.090Z,18.48
2022-08-31T03:20:40.290Z,18.50
2022-08-31T03:23:15.809Z,18.51
2022-08-31T03:25:49.309Z,18.49
2022-08-31T03:28:22.766Z,18.51
2022-08-31T03:31:12.845Z,18.57
2022-08-31T03:33:46.310Z,18.59
2022-08-31T03:36:20.133Z,18.61
2022-08-31T03:38:53.251Z,18.64
2022-08-31T03:41:27.813Z,18.67
2022-08-31T03:44:02.287Z,18.69
2022-08-31T03:46:36.107Z,18.69
2022-08-31T03:49:09.962Z,18.69
2022-08-31T03:51:49.802Z,18.70
2022-08-31T03:54:25.415Z,18.71
2022-08-31T03:56:59.226Z,18.71
2022-08-31T03:59:32.825Z,18.71
2022-08-31T04:02:25.511Z,18.71
2022-08-31T04:05:18.349Z,18.74
2022-08-31T04:08:10.336Z,18.79
2022-08-31T04:11:20.179Z,18.76
2022-08-31T04:14:32.256Z,18.76
2022-08-31T04:17:28.523Z,18.76
2022-08-31T04:20:10.913Z,18.75
2022-08-31T04:22:50.339Z,18.74
2022-08-31T04:25:44.183Z,18.78
2022-08-31T04:28:17.529Z,18.81
2022-08-31T04:30:51.946Z,18.82
2022-08-31T04:33:26.922Z,18.82
2022-08-31T04:36:00.499Z,18.82
2022-08-31T04:38:33.501Z,18.85
2022-08-31T04:41:10.842Z,18.86
2022-08-31T04:43:47.896Z,18.87
2022-08-31T04:46:22.353Z,18.90
2022-08-31T04:48:56.193Z,18.92
2022-08-31T04:51:32.133Z,18.95
2022-08-31T04:54:05.799Z,18.97
2022-08-31T04:56:42.971Z,19.00
2022-08-31T04:59:18.467Z,19.02
2022-08-31T05:02:08.457Z,19.06
2022-08-31T05:04:48.379Z,19.09
2022-08-31T05:07:21.943Z,19.11
2022-08-31T05:09:55.015Z,19.15
2022-08-31T05:12:29.884Z,19.18
2022-08-31T05:15:03.462Z,19.21
2022-08-31T05:17:37.016Z,19.21
2022-08-31T05:20:11.201Z,19.25
2022-08-31T05:22:44.890Z,19.28
2022-08-31T05:25:18.129Z,19.32
2022-08-31T05:27:51.255Z,19.36
2022-08-31T05:30:27.795Z,19.39
2022-08-31T05:33:09.143Z,19.43
2022-08-31T05:35:42.560Z,19.48
2022-08-31T05:38:15.829Z,19.52
2022-08-31T05:40:55.783Z,19.60
2022-08-31T05:43:29.856Z,19.65
2022-08-31T05:46:08.100Z,19.70
2022-08-31T05:48:49.441Z,19.73
2022-08-31T05:51:24.352Z,19.77
2022-08-31T05:53:59.619Z,19.87
2022-08-31T05:56:33.271Z,19.95
2022-08-31T05:59:07.073Z,20.02
2022-08-31T06:01:42.478Z,20.12
2022-08-31T06:04:19.127Z,20.22
2022-08-31T06:06:52.487Z,20.32
2022-08-31T06:09:28.422Z,20.45
2022-08-31T06:12:03.787Z,20.59
2022-08-31T06:14:36.914Z,20.72
2022-08-31T06:17:10.582Z,20.84
2022-08-31T06:19:43.791Z,20.96
2022-08-31T06:22:19.512Z,21.11
2022-08-31T06:24:53.345Z,21.29
2022-08-31T06:27:26.924Z,21.48
2022-08-31T06:30:04.931Z,21.68
2022-08-31T06:32:41.146Z,21.91
2022-08-31T06:35:15.341Z,22.13
2022-08-31T06:38:12.094Z,22.78
2022-08-31T06:40:52.928Z,23.81
2022-08-31T06:44:00.359Z,24.53
2022-08-31T06:46:56.768Z,26.39
2022-08-31T06:49:32.530Z,27.51
2022-08-31T06:52:06.426Z,29.35
2022-08-31T06:54:40.542Z,31.33
2022-08-31T06:57:32.764Z,33.38
2022-08-31T07:00:27.976Z,35.34
2022-08-31T07:03:34.739Z,37.13
2022-08-31T07:06:12.118Z,38.68
2022-08-31T07:08:49.946Z,40.15
2022-08-31T07:11:29.659Z,41.40
2022-08-31T07:14:05.002Z,42.60
2022-08-31T07:16:40.751Z,43.60
2022-08-31T07:19:17.751Z,44.52
2022-08-31T07:22:06.424Z,45.39
2022-08-31T07:24:40.549Z,45.58
2022-08-31T07:27:18.965Z,45.17
2022-08-31T07:30:00.641Z,43.93
2022-08-31T07:32:56.480Z,42.55
2022-08-31T07:35:39.886Z,41.13
2022-08-31T07:38:44.416Z,39.51
2022-08-31T07:41:36.042Z,38.20
2022-08-31T07:44:11.574Z,37.03
2022-08-31T07:46:45.658Z,36.35
2022-08-31T07:49:21.673Z,35.83
2022-08-31T07:52:07.441Z,35.17
2022-08-31T07:55:12.832Z,34.29
2022-08-31T07:57:59.750Z,33.96
2022-08-31T08:00:36.546Z,33.75
2022-08-31T08:03:13.333Z,33.85
2022-08-31T08:06:08.743Z,34.96
2022-08-31T08:09:22.312Z,36.96
2022-08-31T08:12:10.430Z,38.13
2022-08-31T08:15:15.325Z,37.72
2022-08-31T08:18:13.806Z,37.89
2022-08-31T08:20:53.924Z,39.15
2022-08-31T08:23:28.527Z,39.99
2022-08-31T08:26:21.319Z,39.19
2022-08-31T08:29:08.542Z,37.55
2022-08-31T08:31:56.310Z,36.17
2022-08-31T08:34:36.574Z,34.87
2022-08-31T08:37:11.354Z,33.76
2022-08-31T08:39:45.688Z,32.97
2022-08-31T08:42:26.309Z,32.14
2022-08-31T08:44:59.981Z,31.30
2022-08-31T08:47:39.207Z,30.82
2022-08-31T08:50:16.456Z,30.36
2022-08-31T08:52:51.398Z,29.86
2022-08-31T08:55:32.537Z,29.42
2022-08-31T08:58:08.412Z,29.18
2022-08-31T09:00:46.948Z,28.99
2022-08-31T09:03:33.712Z,28.74
2022-08-31T09:06:54.867Z,28.33
2022-08-31T09:09:39.619Z,27.92
2022-08-31T09:12:26.617Z,27.62
2022-08-31T09:15:37.009Z,27.36
2022-08-31T09:18:29.290Z,27.00
2022-08-31T09:21:22.378Z,26.86
2022-08-31T09:24:05.087Z,26.77
2022-08-31T09:27:05.508Z,26.72
2022-08-31T09:29:45.477Z,26.54
2022-08-31T09:32:31.774Z,26.34
2022-08-31T09:35:07.115Z,26.33
2022-08-31T09:37:46.704Z,26.29
2022-08-31T09:40:24.450Z,26.20
2022-08-31T09:43:08.724Z,26.10
2022-08-31T09:45:56.738Z,26.05
2022-08-31T09:48:45.727Z,26.07
2022-08-31T09:51:28.594Z,26.12
2022-08-31T09:54:24.375Z,26.70
2022-08-31T09:57:00.202Z,27.70
2022-08-31T09:59:38.669Z,27.83
2022-08-31T10:02:32.285Z,27.71
2022-08-31T10:05:08.991Z,27.74
2022-08-31T10:07:58.747Z,27.75
2022-08-31T10:10:35.307Z,27.56
2022-08-31T10:13:15.408Z,27.53
2022-08-31T10:15:54.547Z,27.56
2022-08-31T10:18:38.498Z,27.81
2022-08-31T10:21:18.445Z,27.87
2022-08-31T10:23:57.897Z,27.74
2022-08-31T10:26:38.627Z,27.54
2022-08-31T10:29:21.169Z,27.35
2022-08-31T10:32:02.384Z,27.03
2022-08-31T10:34:57.217Z,26.81
2022-08-31T10:37:37.242Z,26.74
2022-08-31T10:40:15.371Z,26.68
2022-08-31T10:43:00.205Z,26.52
2022-08-31T10:45:38.087Z,26.43
2022-08-31T10:48:13.374Z,26.36
2022-08-31T10:50:51.874Z,26.29
2022-08-31T10:53:35.831Z,26.14
2022-08-31T10:56:24.024Z,26.22
2022-08-31T10:59:22.819Z,26.36
2022-08-31T11:02:03.987Z,26.43
2022-08-31T11:04:58.829Z,26.45
2022-08-31T11:07:42.669Z,26.37
2022-08-31T11:10:25.419Z,26.20
2022-08-31T11:13:03.837Z,26.03
2022-08-31T11:15:58.633Z,26.04
2022-08-31T11:18:56.406Z,26.08
2022-08-31T11:21:56.059Z,26.03
2022-08-31T11:24:46.374Z,25.96
2022-08-31T11:27:27.934Z,25.92
2022-08-31T11:30:08.464Z,25.96
2022-08-31T11:32:46.857Z,26.07
2022-08-31T11:36:07.005Z,26.00
2022-08-31T11:38:52.677Z,26.11
2022-08-31T11:41:45.451Z,26.24
2022-08-31T11:44:54.460Z,26.25
2022-08-31T11:47:44.845Z,26.14
2022-08-31T11:50:45.002Z,26.02
2022-08-31T11:53:33.303Z,25.82
2022-08-31T11:56:07.936Z,25.75
2022-08-31T11:58:45.031Z,25.92
2022-08-31T12:01:43.417Z,26.08
2022-08-31T12:04:46.543Z,26.22
2022-08-31T12:07:29.172Z,26.20
2022-08-31T12:10:24.093Z,26.23
2022-08-31T12:13:20.275Z,26.41
2022-08-31T12:16:21.353Z,26.91
2022-08-31T12:19:41.333Z,28.07
2022-08-31T12:22:46.445Z,30.47
2022-08-31T12:25:30.584Z,30.92
2022-08-31T12:28:14.598Z,30.06
2022-08-31T12:30:55.819Z,29.31
2022-08-31T12:33:31.151Z,28.81
2022-08-31T12:36:17.909Z,28.58
2022-08-31T12:39:09.980Z,28.55
2022-08-31T12:41:50.058Z,28.60
2022-08-31T12:44:27.471Z,28.56
2022-08-31T12:47:05.939Z,28.64
2022-08-31T12:49:57.851Z,28.50
2022-08-31T12:52:57.511Z,28.36
2022-08-31T12:55:42.688Z,28.38
2022-08-31T12:58:55.944Z,28.28
2022-08-31T13:01:30.068Z,28.31
2022-08-31T13:04:05.130Z,28.81
2022-08-31T13:06:41.107Z,29.02
2022-08-31T13:09:28.056Z,29.00
2022-08-31T13:12:06.121Z,28.66
2022-08-31T13:14:45.461Z,28.05
2022-08-31T13:17:22.257Z,27.64
2022-08-31T13:19:58.120Z,27.45
2022-08-31T13:22:34.317Z,27.35
2022-08-31T13:25:24.542Z,27.21
2022-08-31T13:27:57.908Z,27.12
2022-08-31T13:30:34.851Z,26.97
2022-08-31T13:33:27.408Z,26.99
2022-08-31T13:36:06.337Z,27.08
2022-08-31T13:38:50.502Z,27.11
2022-08-31T13:41:34.880Z,27.21
2022-08-31T13:44:15.172Z,27.24
2022-08-31T13:47:00.582Z,27.31
2022-08-31T13:49:38.272Z,27.37
2022-08-31T13:52:21.559Z,27.19
2022-08-31T13:55:03.690Z,27.03
2022-08-31T13:57:38.718Z,26.91
2022-08-31T14:00:35.873Z,26.82
2022-08-31T14:03:33.621Z,26.61
2022-08-31T14:06:28.384Z,26.63
2022-08-31T14:09:05.562Z,26.73
2022-08-31T14:11:39.615Z,26.79
2022-08-31T14:14:13.868Z,26.77
2022-08-31T14:16:52.434Z,26.67
2022-08-31T14:19:39.162Z,26.44
2022-08-31T14:22:31.667Z,26.18
2022-08-31T14:25:05.423Z,25.97
2022-08-31T14:27:43.612Z,25.74
2022-08-31T14:30:17.661Z,25.56
2022-08-31T14:32:51.654Z,25.43
2022-08-31T14:35:27.862Z,25.35
2022-08-31T14:38:01.266Z,25.29
2022-08-31T14:40:37.326Z,25.23
2022-08-31T14:43:13.179Z,25.22
2022-08-31T14:45:46.929Z,25.21
2022-08-31T14:48:20.482Z,25.18
2022-08-31T14:50:54.453Z,25.12
2022-08-31T14:53:36.853Z,25.04
2022-08-31T14:56:17.933Z,24.97
2022-08-31T14:58:52.676Z,24.91
2022-08-31T15:01:30.668Z,24.88
2022-08-31T15:04:05.989Z,24.83
2022-08-31T15:06:40.507Z,24.79
2022-08-31T15:09:14.346Z,24.72
2022-08-31T15:11:48.440Z,24.67
2022-08-31T15:14:22.707Z,24.61
2022-08-31T15:17:01.322Z,24.57
2022-08-31T15:19:37.743Z,24.52
2022-08-31T15:22:11.706Z,24.47
2022-08-31T15:24:45.660Z,24.42
2022-08-31T15:27:21.061Z,24.38
2022-08-31T15:29:56.576Z,24.33
2022-08-31T15:32:31.304Z,24.31
2022-08-31T15:35:04.730Z,24.29
2022-08-31T15:37:40.481Z,24.23
2022-08-31T15:40:14.792Z,24.17
2022-08-31T15:42:50.541Z,24.13
2022-08-31T15:45:26.053Z,24.06
2022-08-31T15:48:17.537Z,23.99
2022-08-31T15:50:54.125Z,23.96
2022-08-31T15:53:30.755Z,23.91
2022-08-31T15:56:09.659Z,23.85
2022-08-31T15:58:43.325Z,23.78
2022-08-31T16:01:18.044Z,23.75
2022-08-31T16:03:55.417Z,23.66
2022-08-31T16:06:32.756Z,23.60
2022-08-31T16:09:06.405Z,23.49
2022-08-31T16:11:40.777Z,23.40
2022-08-31T16:14:15.901Z,23.33
2022-08-31T16:16:51.554Z,23.22
2022-08-31T16:19:35.035Z,23.13
2022-08-31T16:22:10.044Z,23.09
2022-08-31T16:24:44.622Z,23.03
2022-08-31T16:27:20.673Z,22.94
2022-08-31T16:29:54.375Z,22.87
2022-08-31T16:32:28.149Z,22.86
2022-08-31T16:35:01.866Z,22.79
2022-08-31T16:37:36.932Z,22.54
2022-08-31T16:40:31.083Z,22.28
2022-08-31T16:43:05.814Z,22.24
2022-08-31T16:45:41.226Z,22.22
2022-08-31T16:48:32.778Z,22.20
2022-08-31T16:51:15.815Z,22.15
2022-08-31T16:53:51.096Z,22.12
2022-08-31T16:56:26.453Z,22.06
2022-08-31T16:59:00.700Z,22.01
2022-08-31T17:01:35.947Z,21.99
2022-08-31T17:04:12.769Z,21.98
2022-08-31T17:06:48.744Z,21.96
2022-08-31T17:09:27.251Z,21.94
2022-08-31T17:12:02.626Z,21.93
2022-08-31T17:14:44.214Z,21.91
2022-08-31T17:17:19.887Z,21.86
2022-08-31T17:19:54.505Z,21.83
2022-08-31T17:22:32.922Z,21.81
2022-08-31T17:25:08.614Z,21.81
2022-08-31T17:27:41.874Z,21.77
2022-08-31T17:30:19.325Z,21.72
2022-08-31T17:32:52.531Z,21.68
2022-08-31T17:35:26.364Z,21.66
2022-08-31T17:38:00.214Z,21.63
2022-08-31T17:40:34.128Z,21.63
2022-08-31T17:43:08.217Z,21.63
2022-08-31T17:45:41.477Z,21.59
2022-08-31T17:48:14.717Z,21.55
2022-08-31T17:50:49.614Z,21.50
2022-08-31T17:53:23.157Z,21.46
2022-08-31T17:55:59.662Z,21.41
2022-08-31T17:58:32.888Z,21.37
2022-08-31T18:01:07.534Z,21.35
2022-08-31T18:03:41.217Z,21.29
2022-08-31T18:06:18.113Z,21.25
2022-08-31T18:08:51.972Z,21.22
2022-08-31T18:11:26.459Z,21.18
2022-08-31T18:14:00.983Z,21.13
2022-08-31T18:16:34.270Z,21.07
2022-08-31T18:19:07.750Z,21.04
2022-08-31T18:21:41.817Z,21.00
2022-08-31T18:24:16.133Z,20.95
2022-08-31T18:26:51.002Z,20.91
2022-08-31T18:29:25.316Z,20.88
2022-08-31T18:31:59.917Z,20.87
2022-08-31T18:34:35.419Z,20.88
2022-08-31T18:37:09.914Z,20.87
2022-08-31T18:40:05.240Z,20.85
2022-08-31T18:42:57.655Z,20.87
2022-08-31T18:45:32.034Z,20.88
2022-08-31T18:48:25.190Z,20.89
2022-08-31T18:50:59.406Z,20.91
2022-08-31T18:53:34.991Z,20.90
2022-08-31T18:56:12.707Z,20.88
2022-08-31T18:58:46.776Z,20.88
2022-08-31T19:01:20.910Z,20.87
2022-08-31T19:03:55.068Z,20.87
2022-08-31T19:06:29.781Z,20.85
2022-08-31T19:09:04.067Z,20.85
2022-08-31T19:11:47.573Z,20.83
2022-08-31T19:14:23.613Z,20.83
2022-08-31T19:17:04.006Z,20.80
2022-08-31T19:19:38.720Z,20.80
2022-08-31T19:22:13.741Z,20.80
2022-08-31T19:24:48.173Z,20.79
2022-08-31T19:27:22.520Z,20.79
2022-08-31T19:29:58.545Z,20.75
2022-08-31T19:32:32.388Z,20.73
2022-08-31T19:35:12.768Z,20.69
2022-08-31T19:37:47.960Z,20.64
2022-08-31T19:40:22.143Z,20.63
2022-08-31T19:43:00.102Z,20.61
2022-08-31T19:45:45.145Z,20.60
2022-08-31T19:48:24.227Z,20.57
2022-08-31T19:50:58.218Z,20.54
2022-08-31T19:53:32.196Z,20.52
2022-08-31T19:56:06.795Z,20.48
2022-08-31T19:58:41.159Z,20.42
2022-08-31T20:01:14.665Z,20.39
2022-08-31T20:03:48.301Z,20.35
2022-08-31T20:06:23.640Z,20.32
2022-08-31T20:08:57.146Z,20.29
2022-08-31T20:11:32.175Z,20.26
2022-08-31T20:14:06.642Z,20.23
2022-08-31T20:16:43.646Z,20.22
2022-08-31T20:19:25.190Z,20.18
2022-08-31T20:22:04.044Z,20.14
2022-08-31T20:24:43.748Z,20.12
2022-08-31T20:27:19.744Z,20.09
2022-08-31T20:29:54.057Z,20.07
2022-08-31T20:32:29.392Z,20.04
2022-08-31T20:35:03.487Z,19.99
2022-08-31T20:37:37.047Z,19.96
2022-08-31T20:40:17.695Z,19.90
2022-08-31T20:42:51.847Z,19.85
2022-08-31T20:45:25.636Z,19.78
2022-08-31T20:48:16.288Z,19.72
2022-08-31T20:50:53.148Z,19.67
2022-08-31T20:53:42.463Z,19.65
2022-08-31T20:56:19.028Z,19.62
2022-08-31T20:58:52.377Z,19.58
2022-08-31T21:01:26.540Z,19.55
2022-08-31T21:04:00.695Z,19.76
2022-08-31T21:06:36.186Z,19.75
2022-08-31T21:09:10.370Z,19.69
2022-08-31T21:11:44.398Z,19.64
2022-08-31T21:14:20.367Z,19.63
2022-08-31T21:16:54.430Z,19.59
2022-08-31T21:19:28.613Z,19.57
2022-08-31T21:22:05.784Z,19.56
2022-08-31T21:24:43.467Z,19.52
2022-08-31T21:27:19.077Z,19.48
2022-08-31T21:29:52.783Z,19.45
2022-08-31T21:32:26.467Z,19.42
2022-08-31T21:35:00.407Z,19.39
2022-08-31T21:37:33.875Z,19.35
2022-08-31T21:40:08.646Z,19.32
2022-08-31T21:42:41.782Z,19.30
2022-08-31T21:45:16.059Z,19.26
2022-08-31T21:47:49.389Z,19.25
2022-08-31T21:50:22.753Z,19.23
2022-08-31T21:53:00.140Z,19.22
2022-08-31T21:55:34.118Z,19.17
2022-08-31T21:58:07.230Z,19.14
2022-08-31T22:00:42.516Z,19.09
2022-08-31T22:03:19.859Z,19.05
2022-08-31T22:05:53.871Z,19.02
2022-08-31T22:08:27.661Z,18.96
2022-08-31T22:11:01.647Z,18.91
2022-08-31T22:13:37.412Z,18.87
2022-08-31T22:16:19.361Z,18.83
2022-08-31T22:19:01.374Z,18.82
2022-08-31T22:21:37.448Z,18.78
2022-08-31T22:24:13.062Z,18.73
2022-08-31T22:27:03.657Z,18.68
2022-08-31T22:29:40.230Z,18.65
2022-08-31T22:32:15.978Z,18.63
2022-08-31T22:34:49.247Z,18.62
2022-08-31T22:37:22.613Z,18.60
2022-08-31T22:39:56.138Z,18.57
2022-08-31T22:42:29.236Z,18.49
2022-08-31T22:45:02.931Z,18.48
2022-08-31T22:47:49.321Z,18.46
2022-08-31T22:50:23.527Z,18.42
2022-08-31T22:52:56.858Z,18.43
2022-08-31T22:55:30.607Z,18.42
2022-08-31T22:58:04.669Z,18.39
2022-08-31T23:00:38.197Z,18.38
2022-08-31T23:03:15.338Z,18.33
2022-08-31T23:05:49.006Z,18.28
2022-08-31T23:08:22.425Z,18.25
2022-08-31T23:10:57.037Z,18.20
2022-08-31T23:13:52.058Z,18.16
2022-08-31T23:16:28.047Z,18.13
2022-08-31T23:19:03.463Z,18.08
2022-08-31T23:21:37.269Z,18.04
2022-08-31T23:24:11.174Z,18.04
2022-08-31T23:26:45.145Z,18.04
2022-08-31T23:29:21.165Z,18.01
2022-08-31T23:31:55.259Z,17.98
2022-08-31T23:34:28.663Z,17.93
2022-08-31T23:37:03.183Z,17.88
2022-08-31T23:39:37.722Z,17.86
2022-08-31T23:42:12.471Z,17.86
2022-08-31T23:44:47.960Z,17.84
2022-08-31T23:47:23.413Z,17.80
2022-08-31T23:49:58.222Z,17.80
2022-08-31T23:52:34.773Z,17.75
2022-08-31T23:55:09.932Z,17.70
2022-08-31T23:57:48.203Z,17.69
